createdAt,value
2019-04-06T00:00:31.545Z,9.3
2019-04-06T00:01:32.203Z,9.4
2019-04-06T00:02:32.863Z,9.5
2019-04-06T00:03:33.524Z,9.3
2019-04-06T00:04:34.185Z,9.3
2019-04-06T00:05:34.893Z,9.4
2019-04-06T00:06:35.501Z,9.3
2019-04-06T00:07:36.163Z,9.4
2019-04-06T00:08:36.822Z,9.3
2019-04-06T00:09:37.502Z,9.4
2019-04-06T00:10:38.140Z,9.5
2019-04-06T00:11:38.798Z,9.5
2019-04-06T00:12:39.479Z,9.5
2019-04-06T00:13:40.114Z,9.5
2019-04-06T00:14:40.776Z,9.5
2019-04-06T00:15:41.436Z,9.5
2019-04-06T00:16:42.098Z,9.5
2019-04-06T00:17:42.758Z,9.5
2019-04-06T00:18:43.419Z,9.5
2019-04-06T00:19:44.080Z,9.6
2019-04-06T00:20:44.740Z,9.5
2019-04-06T00:21:45.438Z,9.6
2019-04-06T00:22:46.106Z,9.6
2019-04-06T00:23:46.820Z,9.7
2019-04-06T00:24:47.455Z,9.7
2019-04-06T00:25:48.113Z,9.6
2019-04-06T00:26:48.773Z,9.6
2019-04-06T00:27:49.469Z,9.6
2019-04-06T00:28:50.129Z,9.7
2019-04-06T00:29:50.789Z,9.6
2019-04-06T00:30:51.449Z,9.7
2019-04-06T00:31:52.110Z,9.7
2019-04-06T00:32:52.771Z,9.7
2019-04-06T00:33:53.431Z,9.8
2019-04-06T00:34:54.091Z,9.7
2019-04-06T00:35:54.751Z,9.7
2019-04-06T00:36:55.412Z,9.7
2019-04-06T00:37:56.098Z,9.7
2019-04-06T00:38:56.806Z,9.7
2019-04-06T00:39:57.424Z,9.7
2019-04-06T00:40:58.083Z,9.7
2019-04-06T00:41:58.745Z,9.7
2019-04-06T00:42:59.408Z,9.8
2019-04-06T00:44:00.068Z,9.8
2019-04-06T00:45:00.730Z,9.8
2019-04-06T00:46:01.390Z,9.8
2019-04-06T00:47:02.053Z,9.8
2019-04-06T00:48:02.713Z,9.8
2019-04-06T00:49:03.375Z,9.8
2019-04-06T00:50:04.039Z,9.8
2019-04-06T00:51:04.697Z,9.8
2019-04-06T00:52:05.358Z,9.8
2019-04-06T00:53:06.044Z,9.9
2019-04-06T00:54:06.681Z,9.8
2019-04-06T00:55:07.345Z,9.8
2019-04-06T00:56:08.006Z,9.8
2019-04-06T00:57:08.664Z,9.6
2019-04-06T00:58:09.324Z,9.8
2019-04-06T00:59:09.986Z,9.7
2019-04-06T01:00:10.647Z,9.8
2019-04-06T01:01:11.308Z,9.9
2019-04-06T01:02:11.969Z,9.8
2019-04-06T01:03:12.629Z,9.8
2019-04-06T01:04:13.289Z,9.8
2019-04-06T01:05:13.950Z,9.8
2019-04-06T01:06:14.620Z,9.8
2019-04-06T01:07:15.272Z,9.8
2019-04-06T01:08:15.982Z,9.7
2019-04-06T01:09:16.650Z,9.9
2019-04-06T01:10:17.332Z,9.8
2019-04-06T01:11:17.965Z,9.8
2019-04-06T01:12:18.625Z,9.7
2019-04-06T01:13:19.288Z,9.8
2019-04-06T01:14:19.949Z,9.7
2019-04-06T01:15:20.610Z,9.8
2019-04-06T01:16:21.269Z,9.9
2019-04-06T01:17:21.931Z,9.8
2019-04-06T01:18:22.594Z,9.9
2019-04-06T01:19:23.254Z,9.8
2019-04-06T01:20:23.916Z,9.8
2019-04-06T01:21:24.576Z,10.0
2019-04-06T01:22:25.238Z,10.0
2019-04-06T01:23:25.897Z,9.9
2019-04-06T01:24:26.559Z,9.9
2019-04-06T01:25:27.221Z,9.9
2019-04-06T01:26:27.882Z,9.8
2019-04-06T01:27:28.545Z,9.9
2019-04-06T01:28:29.240Z,9.9
2019-04-06T01:29:29.903Z,10.0
2019-04-06T01:30:30.664Z,10.0
2019-04-06T01:31:31.271Z,10.0
2019-04-06T01:32:31.934Z,10.0
2019-04-06T01:33:32.633Z,10.0
2019-04-06T01:34:33.295Z,10.0
2019-04-06T01:35:33.958Z,10.0
2019-04-06T01:36:34.619Z,10.0
2019-04-06T01:37:35.284Z,10.0
2019-04-06T01:38:35.980Z,9.9
2019-04-06T01:39:36.641Z,9.9
2019-04-06T01:40:37.304Z,10.0
2019-04-06T01:41:37.965Z,9.9
2019-04-06T01:42:38.630Z,10.0
2019-04-06T01:43:39.289Z,9.8
2019-04-06T01:44:39.952Z,10.0
2019-04-06T01:45:40.730Z,9.9
2019-04-06T01:46:41.340Z,9.9
2019-04-06T01:47:41.999Z,9.9
2019-04-06T01:48:42.660Z,9.9
2019-04-06T01:49:43.320Z,9.9
2019-04-06T01:50:43.983Z,10.0
2019-04-06T01:51:44.678Z,9.9
2019-04-06T01:52:45.339Z,10.0
2019-04-06T01:53:45.998Z,10.0
2019-04-06T01:54:46.729Z,10.0
2019-04-06T01:55:47.333Z,9.9
2019-04-06T01:56:47.992Z,10.0
2019-04-06T01:57:48.661Z,10.0
2019-04-06T01:58:49.353Z,9.9
2019-04-06T01:59:50.010Z,9.9
2019-04-06T02:00:50.670Z,9.9
2019-04-06T02:01:51.330Z,10.0
2019-04-06T02:02:51.989Z,9.9
2019-04-06T02:03:52.649Z,9.9
2019-04-06T02:04:53.309Z,10.0
2019-04-06T02:05:53.969Z,9.9
2019-04-06T02:06:54.628Z,9.9
2019-04-06T02:07:55.288Z,9.9
2019-04-06T02:08:55.951Z,9.9
2019-04-06T02:09:56.715Z,9.9
2019-04-06T02:10:57.354Z,9.9
2019-04-06T02:11:57.988Z,9.8
2019-04-06T02:12:58.652Z,9.8
2019-04-06T02:13:59.309Z,9.8
2019-04-06T02:14:59.969Z,9.8
2019-04-06T02:16:00.632Z,9.8
2019-04-06T02:17:01.287Z,9.8
2019-04-06T02:18:01.945Z,9.8
2019-04-06T02:19:02.674Z,9.7
2019-04-06T02:20:03.301Z,9.8
2019-04-06T02:21:03.953Z,9.7
2019-04-06T02:22:04.708Z,9.7
2019-04-06T02:23:05.306Z,9.7
2019-04-06T02:24:05.970Z,9.6
2019-04-06T02:25:06.650Z,9.7
2019-04-06T02:26:07.287Z,9.6
2019-04-06T02:27:07.947Z,9.6
2019-04-06T02:28:08.613Z,9.6
2019-04-06T02:29:09.269Z,9.6
2019-04-06T02:30:10.133Z,9.6
2019-04-06T02:31:10.619Z,9.5
2019-04-06T02:32:11.292Z,9.5
2019-04-06T02:33:14.219Z,9.5
2019-04-06T02:34:13.592Z,9.5
2019-04-06T02:35:14.251Z,9.4
2019-04-06T02:36:14.929Z,9.4
2019-04-06T02:37:15.664Z,9.4
2019-04-06T02:38:16.284Z,9.5
2019-04-06T02:39:16.940Z,9.5
2019-04-06T02:40:17.747Z,9.3
2019-04-06T02:41:18.288Z,9.4
2019-04-06T02:42:18.947Z,9.3
2019-04-06T02:43:19.605Z,9.3
2019-04-06T02:44:20.438Z,9.4
2019-04-06T02:45:21.169Z,9.4
2019-04-06T02:46:21.765Z,9.2
2019-04-06T02:47:22.473Z,9.3
2019-04-06T02:48:23.160Z,9.3
2019-04-06T02:49:23.817Z,9.4
2019-04-06T02:50:24.474Z,9.4
2019-04-06T02:51:25.200Z,9.4
2019-04-06T02:52:25.818Z,9.3
2019-04-06T02:53:26.484Z,9.4
2019-04-06T02:54:27.177Z,9.4
2019-04-06T02:55:27.871Z,9.4
2019-04-06T02:56:28.531Z,9.3
2019-04-06T02:57:29.193Z,9.3
2019-04-06T02:58:29.851Z,9.3
2019-04-06T02:59:30.517Z,9.4
2019-04-06T03:00:31.216Z,9.4
2019-04-06T03:01:31.903Z,9.4
2019-04-06T03:02:32.740Z,9.4
2019-04-06T03:03:33.386Z,9.3
2019-04-06T03:04:34.050Z,9.5
2019-04-06T03:05:34.711Z,9.4
2019-04-06T03:06:35.370Z,9.5
2019-04-06T03:07:36.030Z,9.5
2019-04-06T03:08:36.692Z,9.5
2019-04-06T03:09:37.558Z,9.5
2019-04-06T03:10:38.041Z,9.5
2019-04-06T03:11:38.700Z,9.5
2019-04-06T03:12:39.360Z,9.4
2019-04-06T03:13:40.050Z,9.5
2019-04-06T03:14:43.991Z,9.5
2019-04-06T03:15:42.330Z,9.5
2019-04-06T03:16:42.996Z,9.5
2019-04-06T03:17:43.692Z,9.4
2019-04-06T03:18:44.502Z,9.4
2019-04-06T03:19:45.107Z,9.5
2019-04-06T03:20:45.767Z,9.5
2019-04-06T03:21:46.427Z,9.6
2019-04-06T03:22:47.083Z,9.6
2019-04-06T03:23:51.583Z,9.6
2019-04-06T03:24:49.395Z,9.6
2019-04-06T03:25:50.054Z,9.6
2019-04-06T03:27:01.166Z,9.6
2019-04-06T03:27:52.370Z,9.5
2019-04-06T03:28:53.029Z,9.5
2019-04-06T03:29:58.304Z,9.6
2019-04-06T03:30:55.564Z,9.6
2019-04-06T03:31:56.242Z,9.6
2019-04-06T03:32:57.080Z,9.5
2019-04-06T03:33:57.869Z,9.5
2019-04-06T03:34:58.889Z,9.5
2019-04-06T03:35:59.553Z,9.5
2019-04-06T03:37:00.211Z,9.5
2019-04-06T03:38:00.881Z,9.5
2019-04-06T03:39:01.559Z,9.6
2019-04-06T03:40:02.225Z,9.5
2019-04-06T03:41:02.895Z,9.5
2019-04-06T03:42:03.878Z,9.5
2019-04-06T03:43:04.525Z,9.5
2019-04-06T03:44:05.308Z,9.5
2019-04-06T03:45:05.937Z,9.5
2019-04-06T03:46:06.593Z,9.5
2019-04-06T03:47:07.252Z,9.5
2019-04-06T03:48:08.128Z,9.5
2019-04-06T03:49:08.766Z,9.5
2019-04-06T03:50:09.463Z,9.5
2019-04-06T03:51:10.119Z,9.5
2019-04-06T03:52:10.782Z,9.5
2019-04-06T03:53:11.439Z,9.5
2019-04-06T03:54:12.196Z,9.6
2019-04-06T03:55:12.840Z,9.5
2019-04-06T03:56:13.462Z,9.5
2019-04-06T03:57:16.639Z,9.5
2019-04-06T03:58:15.773Z,9.6
2019-04-06T03:59:16.438Z,9.6
2019-04-06T04:00:17.255Z,9.6
2019-04-06T04:01:17.870Z,9.6
2019-04-06T04:02:18.808Z,9.6
2019-04-06T04:03:19.442Z,9.6
2019-04-06T04:04:20.136Z,9.6
2019-04-06T04:05:20.794Z,9.6
2019-04-06T04:06:21.512Z,9.6
2019-04-06T04:07:22.122Z,9.6
2019-04-06T04:08:22.784Z,9.6
2019-04-06T04:09:23.445Z,9.5
2019-04-06T04:10:24.138Z,9.6
2019-04-06T04:11:24.961Z,9.6
2019-04-06T04:12:25.943Z,9.6
2019-04-06T04:13:26.572Z,9.6
2019-04-06T04:14:27.439Z,9.6
2019-04-06T04:15:28.020Z,9.6
2019-04-06T04:16:28.728Z,9.6
2019-04-06T04:17:29.380Z,9.6
2019-04-06T04:18:30.206Z,9.5
2019-04-06T04:19:30.918Z,9.5
2019-04-06T04:20:31.673Z,9.6
2019-04-06T04:21:32.294Z,9.6
2019-04-06T04:22:34.680Z,9.6
2019-04-06T04:23:34.599Z,9.6
2019-04-06T04:24:35.258Z,9.6
2019-04-06T04:25:35.926Z,9.5
2019-04-06T04:26:36.584Z,9.5
2019-04-06T04:27:37.235Z,9.5
2019-04-06T04:28:37.896Z,9.6
2019-04-06T04:29:38.571Z,9.6
2019-04-06T04:30:39.234Z,9.6
2019-04-06T04:31:39.932Z,9.5
2019-04-06T04:32:40.627Z,9.6
2019-04-06T04:33:41.330Z,9.5
2019-04-06T04:34:41.982Z,9.7
2019-04-06T04:35:42.645Z,9.6
2019-04-06T04:36:43.429Z,9.6
2019-04-06T04:37:44.039Z,9.5
2019-04-06T04:38:44.925Z,9.6
2019-04-06T04:39:45.572Z,9.5
2019-04-06T04:40:46.234Z,9.4
2019-04-06T04:41:46.960Z,9.5
2019-04-06T04:42:47.857Z,9.5
2019-04-06T04:43:48.478Z,9.5
2019-04-06T04:44:49.157Z,9.6
2019-04-06T04:45:49.988Z,9.6
2019-04-06T04:46:50.526Z,9.6
2019-04-06T04:47:51.294Z,9.6
2019-04-06T04:48:51.910Z,9.6
2019-04-06T04:49:52.570Z,9.5
2019-04-06T04:50:53.230Z,9.6
2019-04-06T04:51:53.898Z,9.5
2019-04-06T04:52:54.554Z,9.6
2019-04-06T04:53:55.217Z,9.5
2019-04-06T04:54:55.877Z,9.5
2019-04-06T04:55:56.773Z,9.4
2019-04-06T04:56:57.394Z,9.5
2019-04-06T04:57:58.050Z,9.5
2019-04-06T04:58:58.721Z,9.5
2019-04-06T04:59:59.410Z,9.5
2019-04-06T05:01:00.115Z,9.5
2019-04-06T05:02:00.807Z,9.5
2019-04-06T05:03:01.466Z,9.5
2019-04-06T05:04:02.127Z,9.5
2019-04-06T05:05:02.790Z,9.5
2019-04-06T05:06:03.451Z,9.4
2019-04-06T05:07:04.269Z,9.5
2019-04-06T05:08:04.960Z,9.5
2019-04-06T05:09:05.570Z,9.4
2019-04-06T05:10:06.230Z,9.6
2019-04-06T05:11:06.893Z,9.6
2019-04-06T05:12:07.554Z,9.7
2019-04-06T05:13:08.217Z,9.6
2019-04-06T05:14:08.879Z,9.6
2019-04-06T05:15:09.541Z,9.7
2019-04-06T05:16:10.203Z,9.7
2019-04-06T05:17:10.946Z,9.6
2019-04-06T05:18:11.549Z,9.5
2019-04-06T05:19:12.304Z,9.6
2019-04-06T05:20:12.909Z,9.7
2019-04-06T05:21:13.571Z,9.6
2019-04-06T05:22:14.235Z,9.7
2019-04-06T05:23:14.896Z,9.6
2019-04-06T05:24:15.559Z,9.8
2019-04-06T05:25:16.255Z,9.7
2019-04-06T05:26:16.894Z,9.7
2019-04-06T05:27:17.560Z,9.8
2019-04-06T05:28:18.266Z,9.8
2019-04-06T05:29:19.132Z,9.7
2019-04-06T05:30:19.757Z,9.9
2019-04-06T05:31:20.423Z,9.8
2019-04-06T05:32:21.084Z,9.9
2019-04-06T05:33:21.748Z,9.9
2019-04-06T05:34:22.422Z,9.8
2019-04-06T05:35:23.077Z,9.9
2019-04-06T05:36:23.870Z,9.9
2019-04-06T05:37:24.595Z,9.9
2019-04-06T05:38:25.207Z,9.9
2019-04-06T05:39:25.994Z,9.9
2019-04-06T05:40:26.612Z,9.9
2019-04-06T05:41:27.276Z,9.9
2019-04-06T05:42:27.990Z,10.0
2019-04-06T05:43:28.610Z,10.0
2019-04-06T05:44:29.266Z,10.1
2019-04-06T05:45:29.932Z,10.1
2019-04-06T05:46:30.605Z,10.1
2019-04-06T05:47:31.298Z,10.1
2019-04-06T05:48:32.087Z,10.1
2019-04-06T05:49:32.721Z,10.2
2019-04-06T05:50:33.389Z,10.2
2019-04-06T05:51:34.082Z,10.2
2019-04-06T05:52:34.718Z,10.3
2019-04-06T05:53:35.484Z,10.3
2019-04-06T05:54:36.092Z,10.4
2019-04-06T05:55:36.813Z,10.4
2019-04-06T05:56:37.452Z,10.4
2019-04-06T05:57:38.137Z,10.5
2019-04-06T05:58:40.646Z,10.5
2019-04-06T05:59:41.069Z,10.6
2019-04-06T06:00:41.721Z,10.5
2019-04-06T06:01:42.605Z,10.6
2019-04-06T06:02:43.257Z,10.6
2019-04-06T06:03:43.929Z,10.6
2019-04-06T06:04:44.588Z,10.6
2019-04-06T06:05:45.253Z,10.6
2019-04-06T06:06:45.917Z,10.6
2019-04-06T06:07:46.582Z,10.7
2019-04-06T06:08:47.248Z,10.8
2019-04-06T06:09:47.916Z,10.8
2019-04-06T06:10:48.640Z,10.6
2019-04-06T06:11:49.432Z,10.7
2019-04-06T06:12:50.057Z,10.7
2019-04-06T06:13:50.723Z,10.6
2019-04-06T06:14:51.390Z,10.6
2019-04-06T06:15:52.055Z,10.6
2019-04-06T06:16:52.724Z,10.7
2019-04-06T06:17:53.390Z,10.7
2019-04-06T06:18:54.106Z,10.8
2019-04-06T06:19:54.875Z,10.9
2019-04-06T06:20:55.549Z,10.8
2019-04-06T06:21:56.411Z,10.8
2019-04-06T06:22:57.043Z,10.8
2019-04-06T06:23:57.745Z,10.8
2019-04-06T06:24:58.412Z,10.9
2019-04-06T06:25:59.100Z,10.8
2019-04-06T06:26:59.795Z,10.8
2019-04-06T06:28:00.554Z,10.7
2019-04-06T06:29:01.373Z,10.8
2019-04-06T06:30:02.169Z,10.8
2019-04-06T06:31:02.936Z,10.8
2019-04-06T06:32:03.548Z,10.8
2019-04-06T06:33:04.218Z,10.8
2019-04-06T06:34:04.919Z,10.8
2019-04-06T06:35:05.589Z,10.8
2019-04-06T06:36:06.371Z,10.8
2019-04-06T06:37:07.048Z,10.8
2019-04-06T06:38:07.799Z,10.7
2019-04-06T06:39:08.467Z,10.8
2019-04-06T06:40:09.136Z,10.8
2019-04-06T06:41:09.952Z,10.9
2019-04-06T06:42:10.570Z,11.0
2019-04-06T06:43:11.273Z,11.1
2019-04-06T06:44:11.901Z,11.1
2019-04-06T06:45:12.566Z,11.3
2019-04-06T06:46:13.234Z,11.3
2019-04-06T06:47:13.901Z,11.3
2019-04-06T06:48:14.568Z,11.3
2019-04-06T06:49:15.464Z,11.3
2019-04-06T06:50:16.087Z,11.5
2019-04-06T06:51:16.752Z,11.5
2019-04-06T06:52:17.422Z,11.4
2019-04-06T06:53:18.087Z,11.4
2019-04-06T06:54:18.806Z,11.4
2019-04-06T06:55:19.422Z,11.3
2019-04-06T06:56:20.100Z,11.3
2019-04-06T06:57:20.760Z,11.3
2019-04-06T06:58:25.687Z,11.2
2019-04-06T06:59:23.080Z,11.3
2019-04-06T07:00:23.768Z,11.2
2019-04-06T07:01:24.414Z,11.1
2019-04-06T07:02:25.092Z,11.2
2019-04-06T07:03:25.807Z,11.1
2019-04-06T07:04:26.556Z,11.1
2019-04-06T07:05:27.171Z,11.1
2019-04-06T07:06:27.837Z,11.1
2019-04-06T07:07:28.503Z,11.1
2019-04-06T07:08:29.173Z,11.2
2019-04-06T07:09:29.842Z,11.3
2019-04-06T07:10:30.508Z,11.6
2019-04-06T07:11:31.220Z,11.7
2019-04-06T07:12:31.842Z,11.8
2019-04-06T07:13:32.507Z,11.7
2019-04-06T07:14:33.173Z,11.8
2019-04-06T07:15:34.035Z,11.9
2019-04-06T07:16:34.534Z,12.0
2019-04-06T07:17:35.210Z,12.1
2019-04-06T07:18:35.901Z,12.1
2019-04-06T07:19:36.568Z,12.2
2019-04-06T07:20:37.234Z,12.4
2019-04-06T07:21:37.902Z,12.4
2019-04-06T07:22:38.724Z,12.5
2019-04-06T07:23:39.342Z,12.6
2019-04-06T07:24:40.010Z,12.6
2019-04-06T07:25:40.712Z,12.7
2019-04-06T07:26:41.931Z,12.8
2019-04-06T07:27:42.576Z,12.8
2019-04-06T07:28:43.252Z,12.8
2019-04-06T07:29:43.911Z,12.9
2019-04-06T07:30:44.652Z,12.8
2019-04-06T07:31:45.271Z,12.7
2019-04-06T07:32:45.938Z,12.6
2019-04-06T07:33:46.605Z,12.6
2019-04-06T07:34:47.272Z,12.6
2019-04-06T07:35:48.201Z,12.5
2019-04-06T07:36:48.633Z,12.4
2019-04-06T07:37:49.303Z,12.5
2019-04-06T07:38:49.978Z,12.6
2019-04-06T07:39:50.636Z,12.6
2019-04-06T07:40:51.305Z,12.8
2019-04-06T07:41:51.976Z,12.9
2019-04-06T07:42:52.643Z,12.9
2019-04-06T07:43:53.478Z,12.9
2019-04-06T07:44:54.337Z,12.9
2019-04-06T07:45:54.787Z,12.9
2019-04-06T07:46:55.457Z,13.0
2019-04-06T07:47:56.123Z,13.2
2019-04-06T07:49:07.464Z,13.2
2019-04-06T07:49:58.451Z,13.3
2019-04-06T07:50:59.343Z,13.6
2019-04-06T07:51:59.823Z,13.6
2019-04-06T07:53:00.524Z,13.9
2019-04-06T07:54:01.488Z,14.2
2019-04-06T07:55:02.262Z,14.3
2019-04-06T07:56:02.883Z,14.4
2019-04-06T07:57:03.549Z,14.4
2019-04-06T07:58:04.218Z,14.5
2019-04-06T07:59:05.054Z,14.5
2019-04-06T08:00:05.696Z,14.5
2019-04-06T08:01:06.363Z,14.6
2019-04-06T08:02:07.034Z,14.7
2019-04-06T08:03:07.733Z,14.8
2019-04-06T08:04:08.402Z,14.9
2019-04-06T08:05:09.092Z,14.9
2019-04-06T08:06:09.735Z,15.0
2019-04-06T08:07:10.405Z,15.0
2019-04-06T08:08:11.189Z,15.1
2019-04-06T08:09:12.054Z,15.2
2019-04-06T08:10:12.670Z,15.1
2019-04-06T08:11:13.337Z,15.1
2019-04-06T08:12:14.007Z,15.0
2019-04-06T08:13:14.674Z,14.8
2019-04-06T08:14:15.344Z,14.7
2019-04-06T08:15:16.012Z,14.7
2019-04-06T08:16:16.850Z,14.6
2019-04-06T08:17:17.400Z,14.6
2019-04-06T08:18:18.224Z,14.6
2019-04-06T08:19:18.850Z,14.6
2019-04-06T08:20:19.521Z,14.7
2019-04-06T08:21:20.372Z,14.6
2019-04-06T08:22:20.987Z,14.7
2019-04-06T08:23:21.654Z,14.6
2019-04-06T08:24:22.324Z,14.6
2019-04-06T08:25:22.992Z,14.5
2019-04-06T08:26:23.835Z,14.6
2019-04-06T08:27:24.608Z,14.7
2019-04-06T08:28:25.215Z,14.7
2019-04-06T08:29:25.902Z,14.7
2019-04-06T08:30:26.557Z,15.0
2019-04-06T08:31:27.225Z,15.0
2019-04-06T08:32:27.896Z,15.5
2019-04-06T08:33:28.623Z,16.1
2019-04-06T08:34:29.244Z,16.9
2019-04-06T08:35:29.906Z,17.7
2019-04-06T08:36:30.574Z,18.0
2019-04-06T08:37:31.243Z,18.5
2019-04-06T08:38:31.915Z,19.0
2019-04-06T08:39:32.586Z,19.1
2019-04-06T08:40:33.257Z,19.3
2019-04-06T08:41:33.980Z,19.6
2019-04-06T08:42:34.593Z,20.1
2019-04-06T08:43:35.391Z,20.7
2019-04-06T08:44:36.069Z,21.0
2019-04-06T08:45:36.740Z,21.5
2019-04-06T08:46:37.413Z,21.9
2019-04-06T08:47:38.273Z,22.3
2019-04-06T08:48:38.918Z,22.9
2019-04-06T08:49:39.592Z,23.4
2019-04-06T08:50:40.271Z,24.1
2019-04-06T08:51:40.935Z,24.3
2019-04-06T08:52:41.607Z,24.5
2019-04-06T08:53:42.280Z,24.4
2019-04-06T08:54:42.951Z,24.1
2019-04-06T08:55:43.623Z,23.8
2019-04-06T08:56:44.293Z,23.1
2019-04-06T08:57:44.967Z,22.6
2019-04-06T08:58:45.723Z,22.1
2019-04-06T08:59:46.352Z,21.6
2019-04-06T09:00:47.023Z,21.0
2019-04-06T09:01:47.697Z,20.9
2019-04-06T09:02:48.513Z,20.6
2019-04-06T09:03:49.326Z,20.8
2019-04-06T09:04:49.998Z,20.8
2019-04-06T09:05:50.669Z,21.0
2019-04-06T09:06:51.342Z,20.8
2019-04-06T09:07:52.061Z,21.2
2019-04-06T09:08:52.723Z,20.8
2019-04-06T09:09:53.396Z,20.9
2019-04-06T09:10:54.074Z,21.3
2019-04-06T09:11:54.740Z,21.3
2019-04-06T09:12:55.429Z,21.5
2019-04-06T09:13:56.087Z,21.9
2019-04-06T09:14:56.761Z,22.3
2019-04-06T09:15:57.433Z,22.5
2019-04-06T09:16:58.107Z,22.4
2019-04-06T09:17:58.968Z,22.4
2019-04-06T09:18:59.594Z,22.8
2019-04-06T09:20:00.270Z,23.2
2019-04-06T09:21:00.943Z,23.6
2019-04-06T09:22:01.615Z,23.8
2019-04-06T09:23:02.292Z,23.7
2019-04-06T09:24:02.965Z,23.8
2019-04-06T09:25:03.637Z,23.8
2019-04-06T09:26:04.393Z,23.7
2019-04-06T09:27:05.013Z,23.5
2019-04-06T09:28:05.673Z,23.4
2019-04-06T09:29:06.348Z,22.9
2019-04-06T09:30:07.112Z,23.1
2019-04-06T09:31:07.757Z,22.8
2019-04-06T09:32:08.591Z,22.4
2019-04-06T09:33:09.342Z,22.2
2019-04-06T09:34:09.957Z,22.1
2019-04-06T09:35:10.628Z,22.1
2019-04-06T09:36:11.302Z,22.3
2019-04-06T09:37:12.011Z,22.3
2019-04-06T09:38:12.651Z,22.6
2019-04-06T09:39:13.323Z,22.5
2019-04-06T09:40:13.999Z,22.7
2019-04-06T09:41:14.899Z,23.2
2019-04-06T09:42:15.376Z,23.2
2019-04-06T09:43:16.050Z,23.2
2019-04-06T09:44:16.723Z,23.3
2019-04-06T09:45:17.395Z,23.5
2019-04-06T09:46:18.246Z,23.5
2019-04-06T09:47:19.122Z,23.6
2019-04-06T09:48:19.966Z,23.4
2019-04-06T09:49:20.630Z,23.4
2019-04-06T09:50:21.303Z,23.4
2019-04-06T09:51:21.977Z,23.1
2019-04-06T09:52:22.651Z,23.3
2019-04-06T09:53:23.324Z,22.9
2019-04-06T09:54:23.998Z,22.8
2019-04-06T09:55:24.671Z,22.8
2019-04-06T09:56:25.343Z,22.7
2019-04-06T09:57:26.019Z,22.7
2019-04-06T09:58:26.692Z,22.5
2019-04-06T09:59:35.292Z,22.4
2019-04-06T10:00:29.030Z,22.3
2019-04-06T10:01:37.992Z,22.3
2019-04-06T10:02:30.407Z,22.1
2019-04-06T10:03:31.081Z,22.1
2019-04-06T10:04:31.755Z,22.0
2019-04-06T10:05:32.468Z,21.9
2019-04-06T10:06:33.225Z,21.9
2019-04-06T10:07:33.843Z,21.9
2019-04-06T10:08:34.518Z,21.7
2019-04-06T10:09:35.187Z,21.5
2019-04-06T10:10:36.210Z,21.5
2019-04-06T10:11:36.866Z,21.5
2019-04-06T10:12:37.539Z,21.4
2019-04-06T10:13:38.212Z,21.4
2019-04-06T10:14:38.884Z,20.9
2019-04-06T10:15:39.557Z,20.8
2019-04-06T10:16:40.309Z,20.7
2019-04-06T10:17:40.924Z,20.6
2019-04-06T10:18:41.596Z,20.5
2019-04-06T10:19:42.328Z,20.1
2019-04-06T10:20:42.978Z,19.9
2019-04-06T10:21:43.630Z,19.8
2019-04-06T10:22:44.302Z,19.7
2019-04-06T10:23:45.018Z,19.6
2019-04-06T10:24:45.682Z,19.4
2019-04-06T10:25:46.356Z,19.3
2019-04-06T10:26:47.030Z,19.1
2019-04-06T10:27:47.855Z,19.1
2019-04-06T10:28:48.701Z,18.9
2019-04-06T10:29:50.228Z,18.8
2019-04-06T10:30:53.555Z,18.8
2019-04-06T10:31:52.697Z,18.7
2019-04-06T10:32:53.372Z,18.6
2019-04-06T10:33:54.040Z,18.6
2019-04-06T10:34:54.712Z,18.5
2019-04-06T10:35:55.386Z,18.3
2019-04-06T10:36:56.195Z,18.4
2019-04-06T10:37:56.760Z,18.3
2019-04-06T10:38:57.468Z,18.4
2019-04-06T10:39:58.360Z,18.2
2019-04-06T10:40:58.983Z,18.2
2019-04-06T10:41:59.924Z,18.3
2019-04-06T10:43:00.583Z,18.1
2019-04-06T10:44:01.406Z,18.0
2019-04-06T10:45:02.053Z,18.1
2019-04-06T10:46:02.724Z,18.0
2019-04-06T10:47:03.394Z,17.9
2019-04-06T10:48:04.066Z,17.9
2019-04-06T10:49:04.737Z,17.9
2019-04-06T10:50:05.408Z,17.9
2019-04-06T10:51:06.076Z,17.8
2019-04-06T10:52:06.748Z,17.8
2019-04-06T10:53:07.417Z,17.8
2019-04-06T10:54:08.413Z,17.8
2019-04-06T10:55:09.299Z,17.9
2019-04-06T10:56:10.160Z,17.9
2019-04-06T10:57:11.143Z,17.9
2019-04-06T10:58:11.807Z,17.9
2019-04-06T10:59:12.478Z,17.8
2019-04-06T11:00:13.183Z,17.8
2019-04-06T11:01:13.854Z,17.8
2019-04-06T11:02:14.757Z,17.6
2019-04-06T11:03:15.450Z,17.7
2019-04-06T11:04:16.121Z,17.7
2019-04-06T11:05:16.793Z,17.7
2019-04-06T11:06:17.464Z,17.7
2019-04-06T11:07:18.132Z,17.8
2019-04-06T11:08:18.817Z,17.9
2019-04-06T11:09:19.509Z,18.0
2019-04-06T11:10:20.180Z,18.0
2019-04-06T11:11:20.885Z,18.0
2019-04-06T11:12:21.591Z,18.0
2019-04-06T11:13:22.226Z,18.0
2019-04-06T11:14:23.003Z,18.1
2019-04-06T11:15:23.809Z,18.2
2019-04-06T11:16:24.432Z,18.2
2019-04-06T11:17:25.107Z,18.2
2019-04-06T11:18:25.972Z,18.2
2019-04-06T11:19:26.829Z,18.0
2019-04-06T11:20:27.739Z,18.2
2019-04-06T11:21:28.199Z,18.2
2019-04-06T11:22:28.877Z,18.3
2019-04-06T11:23:29.537Z,18.3
2019-04-06T11:24:30.422Z,18.4
2019-04-06T11:25:30.914Z,18.4
2019-04-06T11:26:31.584Z,18.4
2019-04-06T11:27:32.255Z,18.5
2019-04-06T11:28:32.961Z,18.5
2019-04-06T11:29:33.631Z,18.6
2019-04-06T11:30:34.301Z,18.7
2019-04-06T11:31:34.975Z,18.7
2019-04-06T11:32:35.756Z,18.7
2019-04-06T11:33:36.346Z,18.6
2019-04-06T11:34:37.247Z,18.7
2019-04-06T11:35:38.044Z,18.8
2019-04-06T11:36:38.676Z,18.8
2019-04-06T11:37:39.345Z,18.9
2019-04-06T11:38:40.017Z,18.9
2019-04-06T11:39:40.689Z,18.9
2019-04-06T11:40:41.362Z,19.0
2019-04-06T11:41:42.285Z,19.0
2019-04-06T11:42:42.902Z,19.0
2019-04-06T11:43:43.744Z,19.0
2019-04-06T11:44:44.371Z,19.1
2019-04-06T11:45:45.043Z,19.2
2019-04-06T11:46:45.717Z,19.0
2019-04-06T11:47:46.385Z,19.1
2019-04-06T11:48:47.301Z,19.2
2019-04-06T11:49:47.754Z,19.0
2019-04-06T11:50:48.432Z,19.1
2019-04-06T11:51:49.170Z,19.1
2019-04-06T11:52:49.800Z,19.1
2019-04-06T11:53:50.469Z,19.2
2019-04-06T11:54:51.473Z,19.1
2019-04-06T11:55:52.124Z,19.3
2019-04-06T11:56:52.796Z,19.2
2019-04-06T11:57:53.467Z,19.3
2019-04-06T11:58:54.135Z,19.2
2019-04-06T11:59:54.807Z,19.2
2019-04-06T12:00:55.513Z,19.3
2019-04-06T12:01:56.229Z,19.3
2019-04-06T12:02:56.977Z,19.3
2019-04-06T12:03:57.925Z,19.2
2019-04-06T12:04:58.547Z,19.3
2019-04-06T12:05:58.999Z,19.3
2019-04-06T12:07:00.956Z,19.2
2019-04-06T12:08:01.333Z,19.2
2019-04-06T12:09:02.004Z,19.2
2019-04-06T12:10:02.676Z,19.2
2019-04-06T12:11:03.342Z,19.1
2019-04-06T12:12:04.035Z,19.2
2019-04-06T12:13:04.692Z,19.3
2019-04-06T12:14:05.352Z,19.2
2019-04-06T12:15:06.024Z,19.2
2019-04-06T12:16:06.900Z,19.2
2019-04-06T12:17:07.769Z,19.3
2019-04-06T12:18:08.438Z,19.3
2019-04-06T12:19:09.135Z,19.3
2019-04-06T12:20:09.762Z,19.4
2019-04-06T12:21:10.764Z,19.4
2019-04-06T12:22:11.970Z,19.4
2019-04-06T12:23:12.103Z,19.4
2019-04-06T12:24:12.800Z,19.4
2019-04-06T12:25:13.444Z,19.4
2019-04-06T12:26:14.113Z,19.4
2019-04-06T12:27:14.788Z,19.4
2019-04-06T12:28:15.489Z,19.4
2019-04-06T12:29:17.001Z,19.5
2019-04-06T12:30:16.860Z,19.5
2019-04-06T12:31:17.557Z,19.6
2019-04-06T12:32:18.207Z,19.6
2019-04-06T12:33:18.906Z,19.6
2019-04-06T12:34:19.578Z,19.7
2019-04-06T12:35:20.247Z,19.7
2019-04-06T12:36:20.931Z,19.7
2019-04-06T12:37:21.627Z,19.7
2019-04-06T12:38:24.764Z,19.7
2019-04-06T12:39:22.993Z,19.8
2019-04-06T12:40:23.664Z,19.8
2019-04-06T12:41:24.334Z,19.9
2019-04-06T12:42:25.023Z,19.9
2019-04-06T12:43:25.675Z,19.8
2019-04-06T12:44:26.710Z,19.8
2019-04-06T12:45:27.350Z,19.9
2019-04-06T12:46:28.091Z,19.9
2019-04-06T12:47:28.750Z,20.0
2019-04-06T12:48:29.493Z,20.0
2019-04-06T12:49:30.119Z,20.0
2019-04-06T12:50:30.792Z,20.0
2019-04-06T12:51:31.767Z,20.0
2019-04-06T12:52:32.629Z,20.0
2019-04-06T12:53:33.626Z,20.0
2019-04-06T12:54:34.306Z,20.0
2019-04-06T12:55:34.934Z,20.1
2019-04-06T12:56:35.896Z,20.1
2019-04-06T12:57:36.308Z,20.2
2019-04-06T12:58:36.980Z,20.1
2019-04-06T12:59:38.042Z,20.1
2019-04-06T13:00:49.297Z,20.1
2019-04-06T13:01:39.423Z,20.1
2019-04-06T13:02:40.094Z,20.1
2019-04-06T13:03:40.763Z,20.0
2019-04-06T13:04:41.665Z,20.1
2019-04-06T13:05:42.471Z,20.1
2019-04-06T13:06:43.107Z,20.1
2019-04-06T13:07:43.813Z,20.2
2019-04-06T13:08:44.483Z,20.1
2019-04-06T13:09:45.320Z,20.1
2019-04-06T13:10:45.943Z,20.2
2019-04-06T13:11:46.962Z,20.2
2019-04-06T13:12:47.591Z,20.2
2019-04-06T13:13:48.264Z,20.3
2019-04-06T13:14:48.934Z,20.2
2019-04-06T13:15:49.606Z,20.3
2019-04-06T13:16:50.539Z,20.3
2019-04-06T13:17:51.307Z,20.3
2019-04-06T13:18:51.928Z,20.4
2019-04-06T13:19:52.602Z,20.3
2019-04-06T13:20:53.276Z,20.3
2019-04-06T13:21:54.161Z,20.4
2019-04-06T13:22:54.932Z,20.3
2019-04-06T13:23:55.555Z,20.4
2019-04-06T13:24:56.227Z,20.3
2019-04-06T13:25:56.899Z,20.4
2019-04-06T13:26:57.572Z,20.4
2019-04-06T13:27:58.435Z,20.4
2019-04-06T13:28:59.046Z,20.4
2019-04-06T13:29:59.838Z,20.3
2019-04-06T13:31:03.323Z,20.4
2019-04-06T13:32:02.120Z,20.4
2019-04-06T13:33:02.789Z,20.4
2019-04-06T13:34:03.471Z,20.4
2019-04-06T13:35:04.152Z,20.4
2019-04-06T13:36:04.840Z,20.4
2019-04-06T13:37:05.519Z,20.3
2019-04-06T13:38:06.181Z,20.4
2019-04-06T13:39:07.185Z,20.4